TimeEDT,TemperatureF,Dew PointF,Humidity,Sea Level PressureIn,VisibilityMPH,Wind Direction,Wind SpeedMPH,Gust SpeedMPH,PrecipitationIn,Events,Conditions,WindDirDegrees,DateUTC
12:53 AM,59.0,55.9,90,30.08,7.0,Calm,Calm,-,N/A,,Mostly Cloudy,0,2013-04-18 04:53:00
1:53 AM,55.9,55.0,97,30.06,5.0,SE,4.6,-,N/A,,Clear,130,2013-04-18 05:53:00
2:53 AM,64.9,55.9,73,30.03,10.0,ESE,10.4,-,N/A,,Clear,120,2013-04-18 06:53:00
3:53 AM,64.9,55.9,73,30.01,10.0,ESE,6.9,-,N/A,,Clear,110,2013-04-18 07:53:00
4:53 AM,66.0,55.9,70,29.99,10.0,SE,8.1,-,N/A,,Clear,130,2013-04-18 08:53:00
5:53 AM,66.0,55.9,70,29.98,10.0,SSE,6.9,-,N/A,,Clear,150,2013-04-18 09:53:00
6:53 AM,66.9,55.0,66,29.99,10.0,South,6.9,-,N/A,,Clear,170,2013-04-18 10:53:00
7:53 AM,68.0,55.9,65,30.01,10.0,SSE,5.8,-,N/A,,Clear,160,2013-04-18 11:53:00
8:53 AM,72.0,57.0,59,30.02,10.0,South,8.1,-,N/A,,Clear,190,2013-04-18 12:53:00
9:53 AM,75.0,57.0,53,30.00,10.0,South,12.7,19.6,N/A,,Clear,180,2013-04-18 13:53:00
10:53 AM,78.1,55.9,46,29.99,10.0,South,11.5,20.7,N/A,,Clear,190,2013-04-18 14:53:00
11:53 AM,79.0,55.9,45,29.97,10.0,South,15.0,19.6,N/A,,Mostly Cloudy,190,2013-04-18 15:53:00
12:53 PM,81.0,55.9,42,29.94,10.0,SSW,17.3,23.0,N/A,,Partly Cloudy,210,2013-04-18 16:53:00
1:53 PM,82.0,55.0,39,29.89,10.0,South,11.5,20.7,N/A,,Partly Cloudy,180,2013-04-18 17:53:00
2:53 PM,84.0,54.0,35,29.87,10.0,South,15.0,20.7,N/A,,Partly Cloudy,170,2013-04-18 18:53:00
3:53 PM,82.0,54.0,38,29.85,10.0,South,20.7,27.6,N/A,,Mostly Cloudy,190,2013-04-18 19:53:00
4:53 PM,81.0,53.1,38,29.84,10.0,SSE,17.3,26.5,N/A,,Mostly Cloudy,160,2013-04-18 20:53:00
5:53 PM,80.1,52.0,38,29.84,10.0,South,19.6,31.1,N/A,,Mostly Cloudy,180,2013-04-18 21:53:00
6:53 PM,78.1,52.0,40,29.83,10.0,South,12.7,25.3,N/A,,Clear,170,2013-04-18 22:53:00
7:53 PM,75.9,52.0,43,29.83,10.0,South,11.5,20.7,N/A,,Scattered Clouds,180,2013-04-18 23:53:00
8:53 PM,73.9,51.1,45,29.84,10.0,South,13.8,19.6,N/A,,Clear,180,2013-04-19 00:53:00
9:53 PM,73.0,52.0,48,29.84,10.0,South,15.0,23.0,N/A,,Clear,170,2013-04-19 01:53:00
10:53 PM,72.0,51.1,48,29.82,10.0,SSE,10.4,-,N/A,,Clear,160,2013-04-19 02:53:00
11:53 PM,71.1,50.0,47,29.80,10.0,South,11.5,-,N/A,,Clear,180,2013-04-19 03:53:00